Time;durP1;ratioP1;P1;durP2;ratioP2;P2;SDS_P1;SDS_P2;PMS_P1;PMS_P2;Temp;Humidity;BMP_temperature;BMP_pressure;BME280_temperature;BME280_humidity;BME280_pressure;Samples;Min_cycle;Max_cycle;Signal;HPM_P1;HPM_P2
2022/04/16 00:01:38;;;;;;;;;;;;;;;;;;;;;
2022/04/16 00:04:04;;;;;;;;;;;;;;;19.15;50.21;103228.16;4918952;29;19915;-84
2022/04/16 00:06:29;;;;;;;;;;;;;;;19.15;50.36;103232.50;4917517;29;20478;-85
2022/04/16 00:08:54;;;;;;;;;;;;;;;19.13;50.50;103223.75;4916762;29;19919;-83
2022/04/16 00:11:20;;;;;;;;;;;;;;;19.14;50.18;103230.72;4900830;29;19919;-83
2022/04/16 00:13:46;;;;;;;;;;;;;;;19.15;50.25;103229.88;4901407;29;19965;-85
2022/04/16 00:16:11;;;;;;;;;;;;;;;19.14;50.28;103236.84;4918364;29;20371;-79
2022/04/16 00:18:36;;;;;;;;;;;;;;;19.14;50.16;103236.84;4902191;29;19926;-83
2022/04/16 00:21:05;;;;;;;;;;;;;;;19.13;50.26;103232.47;4902029;29;20354;-83
2022/04/16 00:23:30;;;;;;;;;;;;;;;19.13;50.28;103242.91;4905800;29;20413;-85
2022/04/16 00:25:56;;;;;;;;;;;;;;;19.12;50.27;103243.75;4921776;29;19927;-81
2022/04/16 00:28:22;;;;;;;;;;;;;;;19.12;50.19;103243.75;4905821;29;19919;-83
2022/04/16 00:30:47;;;;;;;;;;;;;;;19.11;50.26;103240.25;4920884;29;19915;-84
2022/04/16 00:33:12;;;;;;;;;;;;;;;19.13;50.14;103242.03;4920777;29;20000;-84
2022/04/16 00:35:38;;;;;;;;;;;;;;;19.12;50.29;103246.38;4920603;29;20017;-84
2022/04/16 00:38:03;;;;;;;;;;;;;;;19.11;50.21;103248.06;4920453;29;19915;-81
2022/04/16 00:40:29;;;;;;;;;;;;;;;19.10;50.32;103235.88;4904940;29;19919;-83
2022/04/16 00:42:54;;;;;;;;;;;;;;;19.10;50.19;103241.09;4904742;29;20014;-84
2022/04/16 00:45:20;;;;;;;;;;;;;;;19.11;50.31;103240.25;4921655;29;19921;-82
2022/04/16 00:47:45;;;;;;;;;;;;;;;19.10;50.38;103235.88;4920275;29;19922;-84
2022/04/16 00:50:11;;;;;;;;;;;;;;;19.11;50.21;103237.63;4921006;29;19951;-83
2022/04/16 00:52:38;;;;;;;;;;;;;;;19.09;50.20;103239.31;4904685;29;19919;-83
2022/04/16 00:55:05;;;;;;;;;;;;;;;19.08;50.24;103240.19;4904859;29;19954;-84
2022/04/16 00:57:30;;;;;;;;;;;;;;;19.08;50.36;103232.34;4920942;29;19930;-83
2022/04/16 00:59:55;;;;;;;;;;;;;;;19.08;50.37;103232.34;4920825;29;19923;-84
2022/04/16 01:02:21;;;;;;;;;;;;;;;19.08;50.25;103234.09;4904279;29;19919;-85
2022/04/16 01:04:47;;;;;;;;;;;;;;;19.08;50.37;103236.69;4920106;29;20389;-85
2022/04/16 01:07:12;;;;;;;;;;;;;;;19.08;50.38;103236.69;4921425;29;19915;-86
2022/04/16 01:09:37;;;;;;;;;;;;;;;19.07;50.24;103238.41;4920051;29;19926;-86
2022/04/16 01:12:03;;;;;;;;;;;;;;;19.07;50.27;103245.38;4904486;29;19919;-84
2022/04/16 01:14:29;;;;;;;;;;;;;;;19.08;50.44;103247.16;4919587;29;20378;-84
2022/04/16 01:16:55;;;;;;;;;;;;;;;19.06;50.32;103249.72;4919640;29;19915;-85
2022/04/16 01:19:21;;;;;;;;;;;;;;;19.06;50.45;103249.72;4904054;29;19919;-85
2022/04/16 01:21:47;;;;;;;;;;;;;;;19.07;50.31;103245.38;4903572;29;19975;-84
2022/04/16 01:24:14;;;;;;;;;;;;;;;19.06;50.27;103248.84;4919654;29;19919;-85
2022/04/16 01:26:41;;;;;;;;;;;;;;;19.06;50.35;103249.72;4919770;29;19957;-84
2022/04/16 01:29:07;;;;;;;;;;;;;;;19.05;50.23;103242.75;4903966;29;19946;-83
2022/04/16 04:43:43;;;;;;;;;;;;;;;18.77;50.09;103316.84;5991154;23;19926;31
2022/04/16 06:00:39;;;;;;;;;;;;;;;20.78;45.61;103362.06;5149364;23;19926;-90
2022/04/16 06:03:05;;;;;;;;;;;;;;;20.88;45.31;103364.00;4971900;28;20373;-91
2022/04/16 06:05:31;;;;;;;;;;;;;;;21.00;44.88;103365.03;4962713;28;19921;-90
2022/04/16 06:07:57;;;;;;;;;;;;;;;21.11;44.77;103366.09;4946266;28;19957;-92
2022/04/16 06:10:22;;;;;;;;;;;;;;;21.26;44.64;103368.94;4945966;28;19918;-91
2022/04/16 06:12:47;;;;;;;;;;;;;;;21.42;43.95;103370.06;4945303;28;20046;-93
2022/04/16 06:15:12;;;;;;;;;;;;;;;21.66;43.61;103376.50;4961503;28;19944;-93
2022/04/16 06:17:38;;;;;;;;;;;;;;;21.80;43.31;103379.31;4945506;28;19997;-92
2022/04/16 06:20:04;;;;;;;;;;;;;;;21.83;43.17;103382.88;4945469;28;19924;-92
2022/04/16 06:22:29;;;;;;;;;;;;;;;21.98;42.98;103375.19;4971557;28;19943;-92
2022/04/16 06:24:54;;;;;;;;;;;;;;;22.13;42.50;103374.50;4965196;28;19918;-92
2022/04/16 06:27:19;;;;;;;;;;;;;;;22.26;42.12;103379.91;4959756;28;19965;-93
2022/04/16 06:29:45;;;;;;;;;;;;;;;22.21;42.24;103377.22;4948782;28;19985;-88
2022/04/16 06:32:10;;;;;;;;;;;;;;;22.34;41.91;103381.75;4946141;28;20000;-90
2022/04/16 06:34:35;;;;;;;;;;;;;;;22.38;41.34;103383.56;4946836;28;20365;-91
2022/04/16 06:37:01;;;;;;;;;;;;;;;22.43;40.73;103382.69;4947869;28;20373;-95
2022/04/16 06:39:26;;;;;;;;;;;;;;;22.35;40.82;103383.50;4963561;28;19914;-95
2022/04/16 06:41:51;;;;;;;;;;;;;;;22.35;40.57;103387.88;4962605;28;19922;-91
2022/04/16 06:44:16;;;;;;;;;;;;;;;21.71;41.49;103387.94;4944778;28;19922;-87
2022/04/16 06:46:42;;;;;;;;;;;;;;;21.37;41.93;103396.16;4960446;28;20377;-88
2022/04/16 06:49:07;;;;;;;;;;;;;;;20.99;42.73;103399.91;4961224;28;19914;-91
2022/04/16 06:51:32;;;;;;;;;;;;;;;21.10;42.91;103395.72;4945340;28;19918;-90
2022/04/16 06:53:58;;;;;;;;;;;;;;;21.37;42.20;103400.53;4961630;28;19961;-86
2022/04/16 06:56:23;;;;;;;;;;;;;;;21.45;41.49;103391.09;4945208;28;19918;-89
2022/04/16 06:58:49;;;;;;;;;;;;;;;21.64;41.71;103399.19;4961679;29;19918;-88
2022/04/16 07:01:14;;;;;;;;;;;;;;;21.52;41.43;103402.53;4929685;29;20370;-88
2022/04/16 07:03:39;;;;;;;;;;;;;;;21.35;41.85;103400.50;4943705;29;20311;-88
2022/04/16 07:06:05;;;;;;;;;;;;;;;21.41;41.78;103399.75;4927125;29;19925;-91
2022/04/16 07:08:30;;;;;;;;;;;;;;;21.44;42.25;103399.78;4945982;29;19938;-86
2022/04/16 07:10:55;;;;;;;;;;;;;;;21.28;42.97;103398.66;4931202;29;19981;-87
2022/04/16 07:13:21;;;;;;;;;;;;;;;21.21;42.22;103398.50;4925135;29;19918;-87
2022/04/16 07:15:46;;;;;;;;;;;;;;;21.28;41.93;103408.25;4925045;29;20373;-88
2022/04/16 07:18:15;;;;;;;;;;;;;;;21.25;44.24;103409.09;4924815;29;19918;-88
2022/04/16 07:20:42;;;;;;;;;;;;;;;20.95;44.24;103410.34;4925744;29;19953;-89
2022/04/16 07:23:07;;;;;;;;;;;;;;;21.03;43.95;103409.56;4925804;29;20281;-88
2022/04/16 07:25:33;;;;;;;;;;;;;;;20.99;43.39;103418.22;4929103;29;19926;-87
2022/04/16 07:28:01;;;;;;;;;;;;;;;21.07;42.48;103409.66;4936093;29;19965;-86
2022/04/16 07:30:29;;;;;;;;;;;;;;;20.98;43.05;103413.88;4952865;28;19920;-87
2022/04/16 07:33:08;;;;;;;;;;;;;;;20.96;42.51;103422.56;4939872;29;19942;-88
2022/04/16 15:59:40;;;;;;;;;;;;;;;19.42;39.91;103199.13;5064203;23;19917;-82
2022/04/16 16:42:33;;;;;;;;;;;;;;;19.07;44.24;103181.00;5916405;23;19925;-81
2022/04/16 16:58:08;;;;;;;;;;;;;;;19.09;44.49;103181.91;5587411;23;19917;-81
2022/04/16 17:19:52;;;;;;;;;;;;;;;18.95;46.42;103191.19;5002364;28;20008;-82
2022/04/16 17:22:18;;;;;;;;;;;;;;;18.91;46.09;103185.00;4988785;28;19913;-82
2022/04/16 17:24:43;;;;;;;;;;;;;;;18.92;42.60;103175.44;4971377;28;19988;-82
2022/04/16 17:27:09;;;;;;;;;;;;;;;18.98;44.98;103175.59;4989722;28;19898;-82
2022/04/16 17:35:32;;;;;;;;;;;;;;;18.93;43.57;103172.00;5020392;28;19937;-82
2022/04/16 17:38:16;;;;;;;;;;;;;;;18.91;45.10;103169.34;5001064;28;19922;-82
2022/04/16 17:40:42;;;;;;;;;;;;;;;18.95;44.41;103177.25;5010763;28;20292;-82
2022/04/16 17:43:10;;;;;;;;;;;;;;;18.90;42.94;103180.66;5009565;28;19922;-82
2022/04/16 17:45:38;;;;;;;;;;;;;;;18.88;43.69;103178.84;4991636;28;19918;-82
2022/04/16 17:48:03;;;;;;;;;;;;;;;18.88;43.81;103184.06;5009718;28;19964;-82
2022/04/16 17:50:36;;;;;;;;;;;;;;;18.85;46.31;103190.09;5012806;28;19914;-82
2022/04/16 17:53:03;;;;;;;;;;;;;;;18.87;45.39;103187.50;5009359;28;19914;-82
2022/04/16 17:55:30;;;;;;;;;;;;;;;18.85;43.79;103186.59;4997493;28;19976;-82
2022/04/16 17:57:56;;;;;;;;;;;;;;;18.82;44.49;103184.81;5012705;28;19937;-82
2022/04/16 18:00:51;;;;;;;;;;;;;;;18.83;46.04;103185.69;4997690;28;19914;-83
2022/04/16 18:03:34;;;;;;;;;;;;;;;18.81;44.66;103185.63;4974348;29;19898;-83
2022/04/16 19:25:36;;;;;;;;;;;;;;;18.59;45.42;103259.84;5229704;23;19925;-80
2022/04/16 19:28:01;;;;;;;;;;;;;;;18.58;45.72;103255.50;4985174;28;19940;-80
2022/04/16 19:30:26;;;;;;;;;;;;;;;18.60;45.41;103264.25;5002905;28;19914;-80
2022/04/16 19:32:53;;;;;;;;;;;;;;;18.63;45.17;103253.00;4980906;28;19918;-80
2022/04/16 19:35:19;;;;;;;;;;;;;;;18.64;44.66;103254.75;4999165;28;19989;-80
2022/04/16 19:37:44;;;;;;;;;;;;;;;18.60;45.01;103258.16;4995819;28;19914;-80
2022/04/16 19:40:10;;;;;;;;;;;;;;;18.59;45.17;103261.59;4987146;28;19925;-79
2022/04/16 19:42:36;;;;;;;;;;;;;;;18.62;45.05;103254.72;4993852;28;19917;-80
2022/04/16 19:45:01;;;;;;;;;;;;;;;18.64;45.32;103257.34;5014688;28;19914;-80
2022/04/16 19:47:27;;;;;;;;;;;;;;;18.63;45.47;103253.88;4995284;28;19914;-80
2022/04/16 19:49:52;;;;;;;;;;;;;;;18.63;45.39;103250.41;4971121;28;20040;-80
2022/04/16 19:52:17;;;;;;;;;;;;;;;18.63;45.17;103256.47;4987668;28;19914;-80
2022/04/16 19:54:45;;;;;;;;;;;;;;;18.64;45.50;103255.66;4970545;28;20359;-80
2022/04/16 19:57:10;;;;;;;;;;;;;;;18.63;45.13;103250.41;4988438;28;19932;-80
2022/04/16 19:59:35;;;;;;;;;;;;;;;18.59;45.57;103249.44;4994214;28;19921;-80
2022/04/16 20:02:03;;;;;;;;;;;;;;;18.64;45.44;103252.16;4978254;28;19924;-81
2022/04/16 23:51:30;;;;;;;;;;;;;;;18.83;44.63;103151.78;5019492;28;19960;-85
2022/04/16 23:57:52;;;;;;;;;;;;;;;18.82;44.56;103144.81;5019478;28;19976;-85
